Time;durP1;ratioP1;P1;durP2;ratioP2;P2;SDS_P1;SDS_P2;PMS_P1;PMS_P2;Temp;Humidity;BMP_temperature;BMP_pressure;BME280_temperature;BME280_humidity;BME280_pressure;Samples;Min_cycle;Max_cycle;Signal;HPM_P1;HPM_P2
2022/03/25 00:02:35;;;;;;;44.17;20.93;;;9.90;99.90;;;;;;5082283;28;20389;-82
2022/03/25 00:05:20;;;;;;;30.43;20.20;;;9.90;99.90;;;;;;5083104;28;20400;-82
2022/03/25 00:08:05;;;;;;;29.33;19.60;;;10.00;99.90;;;;;;5102346;28;20512;-81
2022/03/25 00:10:49;;;;;;;38.97;21.20;;;10.00;99.90;;;;;;5102261;28;20408;-81
2022/03/25 00:13:34;;;;;;;36.63;20.97;;;10.00;99.90;;;;;;5102881;28;20407;-81
2022/03/25 00:16:19;;;;;;;36.83;20.47;;;10.00;99.90;;;;;;5102244;28;20376;-79
2022/03/25 00:19:04;;;;;;;32.93;21.33;;;10.00;99.90;;;;;;5088077;28;20384;-82
2022/03/25 00:21:48;;;;;;;34.03;20.50;;;9.90;99.90;;;;;;5117577;28;20400;-81
2022/03/25 00:24:33;;;;;;;40.27;20.93;;;9.80;99.90;;;;;;5115817;28;20414;-81
2022/03/25 00:27:18;;;;;;;36.17;20.27;;;9.90;99.90;;;;;;5119805;28;20483;-81
2022/03/25 00:30:04;;;;;;;35.53;20.17;;;9.90;99.90;;;;;;5112987;28;20408;-82
2022/03/25 00:32:48;;;;;;;34.47;20.50;;;9.90;99.90;;;;;;5103560;28;20387;-83
2022/03/25 00:35:33;;;;;;;33.53;21.23;;;9.90;99.90;;;;;;5103563;28;20860;-83
2022/03/25 00:38:18;;;;;;;28.77;20.80;;;9.90;99.90;;;;;;5103356;28;20396;-83
2022/03/25 00:41:06;;;;;;;33.27;21.73;;;9.90;99.90;;;;;;5103412;28;20395;-83
2022/03/25 00:43:50;;;;;;;27.63;18.80;;;10.00;99.90;;;;;;5089200;28;20426;-83
2022/03/25 00:46:35;;;;;;;36.30;21.17;;;9.90;99.90;;;;;;5103528;28;20447;-82
2022/03/25 00:49:20;;;;;;;32.37;19.90;;;9.90;99.90;;;;;;5103484;28;20803;-82
2022/03/25 00:52:05;;;;;;;36.47;20.87;;;9.80;99.90;;;;;;5088162;28;20490;-83
2022/03/25 00:54:50;;;;;;;31.57;20.97;;;9.80;99.90;;;;;;5103271;28;20473;-82
2022/03/25 00:57:34;;;;;;;35.30;22.00;;;9.80;99.90;;;;;;5103600;28;20893;-82
2022/03/25 01:00:20;;;;;;;28.00;18.40;;;9.80;99.90;;;;;;5109325;28;20448;-79
2022/03/25 01:03:04;;;;;;;27.77;19.93;;;9.60;99.90;;;;;;5110323;28;20388;-82
2022/03/25 01:05:49;;;;;;;38.83;21.83;;;9.40;99.90;;;;;;5102487;28;20493;-81
2022/03/25 01:08:35;;;;;;;31.87;20.53;;;9.60;99.90;;;;;;5102532;28;20404;-81
2022/03/25 01:11:19;;;;;;;30.17;20.30;;;9.50;99.90;;;;;;5058614;28;20411;-81
2022/03/25 01:14:04;;;;;;;34.07;20.30;;;9.50;99.90;;;;;;5101890;28;20415;-82
2022/03/25 01:16:49;;;;;;;31.03;20.87;;;9.60;99.90;;;;;;5101529;28;20418;-81
2022/03/25 01:19:34;;;;;;;36.93;21.77;;;9.50;99.90;;;;;;5101719;28;20450;-81
2022/03/25 01:22:19;;;;;;;33.40;19.17;;;9.50;99.90;;;;;;5101232;28;20380;-82
2022/03/25 01:25:04;;;;;;;36.77;20.83;;;9.50;99.90;;;;;;5101767;28;20426;-81
2022/03/25 01:27:48;;;;;;;33.80;19.47;;;9.30;99.90;;;;;;5101634;28;20474;-81
2022/03/25 01:30:33;;;;;;;33.67;20.40;;;9.20;99.90;;;;;;5102090;28;20797;-82
2022/03/25 01:33:18;;;;;;;40.47;22.83;;;9.30;99.90;;;;;;5101522;28;20377;-83
2022/03/25 01:36:03;;;;;;;31.90;20.83;;;9.20;99.90;;;;;;5084878;28;20381;-81
2022/03/25 01:38:48;;;;;;;31.13;19.50;;;9.20;99.90;;;;;;5101141;28;20446;-81
2022/03/25 01:41:33;;;;;;;35.53;22.00;;;9.20;99.90;;;;;;5085640;28;20388;-80
2022/03/25 01:44:32;;;;;;;31.90;21.07;;;9.20;99.90;;;;;;5085317;28;20396;-81
2022/03/25 01:47:17;;;;;;;35.60;23.83;;;9.20;99.90;;;;;;5100990;28;20782;-80
2022/03/25 01:50:03;;;;;;;26.93;17.23;;;9.20;99.90;;;;;;5100376;28;20372;-81
2022/03/25 01:52:50;;;;;;;31.83;21.77;;;9.10;99.90;;;;;;5085563;28;20464;-81
2022/03/25 01:55:38;;;;;;;36.93;22.40;;;9.00;99.90;;;;;;5100218;28;20776;-80
2022/03/25 01:58:23;;;;;;;41.53;22.93;;;8.80;99.90;;;;;;5100519;28;20416;-81
2022/03/25 02:01:08;;;;;;;28.17;19.33;;;8.70;99.90;;;;;;5100540;28;20388;-80
2022/03/25 02:03:53;;;;;;;31.03;19.30;;;8.50;99.90;;;;;;5070629;28;20946;-81
2022/03/25 02:06:38;;;;;;;22.67;15.70;;;8.50;99.90;;;;;;5100576;28;20549;-81
2022/03/25 02:09:25;;;;;;;21.67;15.87;;;8.40;99.90;;;;;;5099293;28;20928;-82
2022/03/25 02:12:09;;;;;;;22.10;14.40;;;7.40;99.90;;;;;;5100512;28;20500;-82
2022/03/25 02:14:57;;;;;;;17.00;13.00;;;6.90;99.90;;;;;;5100907;28;20459;-82
2022/03/25 02:17:41;;;;;;;19.23;12.77;;;6.70;99.90;;;;;;5072931;28;20403;-82
2022/03/25 02:20:27;;;;;;;13.33;10.63;;;6.20;99.90;;;;;;5100846;28;20420;-82
2022/03/25 02:23:13;;;;;;;14.30;9.50;;;6.00;99.90;;;;;;5100807;28;20933;-81
2022/03/25 02:25:58;;;;;;;11.87;9.20;;;5.80;99.90;;;;;;5086993;28;20375;-81
2022/03/25 02:28:43;;;;;;;12.83;9.33;;;5.80;99.90;;;;;;5087671;28;20884;-81
2022/03/25 02:31:28;;;;;;;14.67;11.80;;;5.80;99.90;;;;;;5100413;28;20930;-81
2022/03/25 02:34:12;;;;;;;16.40;11.60;;;5.60;99.90;;;;;;5099918;28;20416;-82
2022/03/25 02:36:57;;;;;;;16.40;10.70;;;5.60;99.90;;;;;;5102902;28;20501;-82
2022/03/25 02:39:41;;;;;;;18.60;10.67;;;5.70;99.90;;;;;;5099833;28;20407;-81
2022/03/25 02:42:27;;;;;;;17.70;12.50;;;5.50;99.90;;;;;;5099356;28;20384;-81
2022/03/25 02:45:13;;;;;;;14.13;10.63;;;5.60;99.90;;;;;;5084335;28;20380;-82
2022/03/25 02:48:01;;;;;;;18.33;11.93;;;5.60;99.90;;;;;;5088641;28;20388;-81
2022/03/25 02:50:46;;;;;;;21.77;13.57;;;5.50;99.90;;;;;;5103756;28;20491;-82
2022/03/25 02:53:31;;;;;;;22.00;12.90;;;5.80;99.90;;;;;;5104030;28;20384;-82
2022/03/25 02:56:17;;;;;;;29.83;19.40;;;6.30;99.90;;;;;;5088427;28;20542;-80
2022/03/25 02:59:02;;;;;;;37.93;21.83;;;6.70;99.90;;;;;;5103643;28;20759;-80
2022/03/25 03:01:46;;;;;;;35.73;20.33;;;7.00;99.90;;;;;;5104132;28;20396;-82
2022/03/25 03:04:31;;;;;;;27.87;18.70;;;7.20;99.90;;;;;;5103555;28;20385;-82
2022/03/25 03:07:16;;;;;;;35.40;21.40;;;7.30;99.90;;;;;;5103294;28;20489;-82
2022/03/25 03:10:01;;;;;;;38.27;22.27;;;7.50;99.90;;;;;;5103060;28;20433;-82
2022/03/25 03:12:45;;;;;;;27.13;19.00;;;7.60;99.90;;;;;;5103979;28;20904;-81
2022/03/25 03:15:30;;;;;;;35.60;21.93;;;7.70;99.90;;;;;;5103884;28;20937;-82
2022/03/25 03:18:15;;;;;;;35.40;20.20;;;7.70;99.90;;;;;;5088438;28;20523;-82
2022/03/25 03:20:59;;;;;;;37.97;21.53;;;7.70;99.90;;;;;;5104006;28;20395;-81
2022/03/25 03:23:45;;;;;;;32.33;20.90;;;7.70;99.90;;;;;;5103377;28;20384;-81
2022/03/25 03:26:29;;;;;;;32.70;20.60;;;7.60;99.90;;;;;;5103217;28;20541;-82
2022/03/25 03:29:14;;;;;;;43.67;22.10;;;7.60;99.90;;;;;;5103884;28;20376;-82
2022/03/25 03:31:58;;;;;;;34.10;20.87;;;7.50;99.90;;;;;;5104351;28;20891;-82
2022/03/25 03:34:43;;;;;;;24.50;15.70;;;7.50;99.90;;;;;;5088172;28;20427;-83
2022/03/25 03:37:27;;;;;;;22.10;14.30;;;7.10;99.90;;;;;;5103471;28;20519;-82
2022/03/25 03:40:15;;;;;;;22.60;13.90;;;6.40;99.90;;;;;;5086793;28;20741;-82
2022/03/25 03:43:01;;;;;;;17.93;12.77;;;5.80;99.90;;;;;;5103340;28;20384;-82
2022/03/25 03:45:45;;;;;;;20.07;13.30;;;5.60;99.90;;;;;;5103241;28;20429;-82
2022/03/25 03:48:31;;;;;;;21.47;12.07;;;5.50;99.90;;;;;;5088133;28;20437;-82
2022/03/25 03:51:15;;;;;;;21.67;13.30;;;5.30;99.90;;;;;;5103665;28;20393;-82
2022/03/25 03:54:00;;;;;;;21.53;11.80;;;5.20;99.90;;;;;;5087662;28;20406;-82
2022/03/25 03:56:45;;;;;;;22.97;13.87;;;5.40;99.90;;;;;;5103321;28;20436;-81
2022/03/25 03:59:29;;;;;;;32.73;18.33;;;5.60;99.90;;;;;;5103945;28;20384;-82
2022/03/25 04:02:14;;;;;;;38.43;19.80;;;5.90;99.90;;;;;;5104219;28;20384;-83
2022/03/25 04:04:59;;;;;;;38.30;20.43;;;6.40;99.90;;;;;;5108214;28;20383;-80
2022/03/25 04:07:45;;;;;;;39.03;20.30;;;6.60;99.90;;;;;;5113783;28;20392;-82
2022/03/25 04:10:30;;;;;;;31.73;20.20;;;6.80;99.90;;;;;;5087681;28;20384;-82
2022/03/25 04:13:15;;;;;;;37.33;22.80;;;6.90;99.90;;;;;;5102730;28;20376;-82
2022/03/25 04:15:59;;;;;;;32.63;20.97;;;7.00;99.90;;;;;;5102674;28;20380;-81
2022/03/25 04:18:44;;;;;;;32.13;21.87;;;7.10;99.90;;;;;;5102956;28;20431;-81
2022/03/25 04:21:29;;;;;;;30.47;18.63;;;7.10;99.90;;;;;;5103487;28;20399;-82
2022/03/25 04:24:13;;;;;;;32.10;20.37;;;7.20;99.90;;;;;;5103767;28;20371;-82
2022/03/25 04:26:58;;;;;;;45.17;23.90;;;7.20;99.90;;;;;;5103823;28;20403;-82
2022/03/25 04:29:43;;;;;;;39.10;20.87;;;7.20;99.90;;;;;;5087859;28;20375;-81
2022/03/25 04:32:29;;;;;;;39.23;21.20;;;7.10;99.90;;;;;;5104359;28;20445;-82
2022/03/25 04:35:14;;;;;;;36.77;21.27;;;7.10;99.90;;;;;;5104366;28;20434;-82
2022/03/25 04:37:59;;;;;;;30.23;19.77;;;7.20;99.90;;;;;;5103806;28;20516;-82
2022/03/25 04:40:44;;;;;;;34.83;19.27;;;7.20;99.90;;;;;;5104143;28;20384;-82
2022/03/25 04:43:29;;;;;;;37.23;19.37;;;7.20;99.90;;;;;;5103951;28;20388;-82
2022/03/25 04:46:13;;;;;;;39.40;22.67;;;7.10;99.90;;;;;;5102980;28;20408;-82
2022/03/25 04:48:58;;;;;;;37.47;22.40;;;7.00;99.90;;;;;;5104107;28;20450;-82
2022/03/25 04:51:42;;;;;;;43.90;23.27;;;6.90;99.90;;;;;;5105751;28;20380;-82
2022/03/25 04:54:27;;;;;;;42.97;20.50;;;6.90;99.90;;;;;;5105360;28;20392;-83
2022/03/25 04:57:12;;;;;;;27.90;19.90;;;6.80;99.90;;;;;;5090301;28;20477;-82
2022/03/25 04:59:56;;;;;;;36.90;21.60;;;6.80;99.90;;;;;;5090594;28;20450;-82
2022/03/25 05:02:41;;;;;;;34.33;20.43;;;6.90;99.90;;;;;;5106404;28;20733;-82
2022/03/25 05:05:25;;;;;;;31.23;19.80;;;6.90;99.90;;;;;;5106220;28;20403;-82
2022/03/25 05:08:10;;;;;;;30.43;19.67;;;6.80;99.90;;;;;;5107227;28;20391;-83
2022/03/25 05:10:55;;;;;;;33.53;22.47;;;6.80;99.90;;;;;;5090268;28;20380;-83
2022/03/25 05:13:39;;;;;;;38.67;21.30;;;6.80;99.90;;;;;;5108316;28;20441;-83
2022/03/25 05:16:24;;;;;;;36.63;21.20;;;6.70;99.90;;;;;;5091982;28;20380;-82
2022/03/25 05:19:09;;;;;;;37.33;21.80;;;6.60;99.90;;;;;;5108105;28;20391;-83
2022/03/25 05:21:54;;;;;;;42.13;21.77;;;6.60;99.90;;;;;;5091626;28;20749;-82
2022/03/25 05:24:39;;;;;;;36.37;20.00;;;6.60;99.90;;;;;;5107293;28;20392;-82
2022/03/25 05:27:23;;;;;;;41.47;24.40;;;6.60;99.90;;;;;;5089470;28;20795;-81
2022/03/25 05:30:09;;;;;;;36.80;22.57;;;6.60;99.90;;;;;;5101691;28;20387;-81
2022/03/25 05:32:54;;;;;;;35.90;18.93;;;6.60;99.90;;;;;;5101933;28;20848;-80
2022/03/25 05:35:39;;;;;;;34.80;20.47;;;6.60;99.90;;;;;;5101306;28;20392;-82
2022/03/25 05:38:24;;;;;;;38.83;21.30;;;6.50;99.90;;;;;;5101167;28;20440;-80
2022/03/25 05:41:08;;;;;;;33.50;20.57;;;6.50;99.90;;;;;;5101454;28;20558;-82
2022/03/25 05:43:54;;;;;;;34.37;20.27;;;6.50;99.90;;;;;;5100675;28;20388;-81
2022/03/25 05:46:38;;;;;;;36.03;21.47;;;6.40;99.90;;;;;;5101201;28;20404;-81
2022/03/25 05:49:24;;;;;;;40.87;21.63;;;6.50;99.90;;;;;;5101022;28;20395;-82
2022/03/25 05:52:09;;;;;;;31.50;21.50;;;6.60;99.90;;;;;;5101647;28;20410;-81
2022/03/25 05:54:53;;;;;;;33.90;20.70;;;6.70;99.90;;;;;;5086102;28;20481;-82
2022/03/25 05:57:38;;;;;;;35.43;21.43;;;6.70;99.90;;;;;;5101761;28;20489;-81
2022/03/25 06:00:23;;;;;;;38.93;20.93;;;6.80;99.90;;;;;;5102098;28;20407;-82
2022/03/25 06:03:08;;;;;;;35.53;20.67;;;6.80;99.90;;;;;;5101540;28;20789;-81
2022/03/25 06:05:53;;;;;;;41.43;22.17;;;6.80;99.90;;;;;;5086050;28;20494;-83
2022/03/25 06:08:37;;;;;;;38.53;21.30;;;6.80;99.90;;;;;;5101140;28;20411;-82
2022/03/25 06:11:22;;;;;;;36.67;21.17;;;6.90;99.90;;;;;;5101514;28;20457;-82
2022/03/25 06:14:07;;;;;;;44.33;24.93;;;6.90;99.90;;;;;;5100853;28;20434;-82
2022/03/25 06:16:52;;;;;;;31.73;20.70;;;7.00;99.90;;;;;;5085299;28;20447;-82
2022/03/25 06:19:40;;;;;;;36.37;21.47;;;6.90;99.90;;;;;;5102788;28;20897;-82
2022/03/25 06:22:45;;;;;;;33.10;22.10;;;7.00;99.90;;;;;;5071869;28;20958;-82
2022/03/25 06:25:31;;;;;;;35.17;21.00;;;7.00;99.90;;;;;;5027417;28;20417;-82
2022/03/25 06:28:22;;;;;;;46.47;21.00;;;7.00;99.90;;;;;;5013559;28;20470;-82
2022/03/25 06:31:08;;;;;;;35.10;20.63;;;7.00;99.90;;;;;;5042138;28;20414;-81
2022/03/25 06:33:52;;;;;;;33.37;20.83;;;7.10;99.90;;;;;;5026690;28;20443;-82
2022/03/25 06:36:41;;;;;;;40.07;21.70;;;7.10;99.90;;;;;;5038952;28;20499;-82
2022/03/25 06:39:26;;;;;;;36.27;21.57;;;7.20;99.90;;;;;;4997981;28;20446;-80
2022/03/25 06:42:11;;;;;;;41.87;23.07;;;7.30;99.90;;;;;;5039379;28;20460;-80
2022/03/25 06:44:55;;;;;;;37.00;21.80;;;7.30;99.90;;;;;;5040664;28;20394;-81
2022/03/25 06:47:40;;;;;;;35.17;19.63;;;7.30;99.90;;;;;;5039336;28;20393;-82
2022/03/25 06:50:25;;;;;;;34.40;21.73;;;7.40;99.90;;;;;;5044487;28;20611;-82
2022/03/25 06:53:10;;;;;;;29.30;19.37;;;7.30;99.90;;;;;;5040405;28;20446;-82
2022/03/25 06:55:55;;;;;;;43.70;24.57;;;7.40;99.90;;;;;;5063062;28;20435;-83
2022/03/25 06:58:40;;;;;;;34.30;22.27;;;7.40;99.90;;;;;;5102888;28;20443;-81
2022/03/25 07:01:26;;;;;;;34.20;22.27;;;7.50;99.90;;;;;;5087513;28;20433;-83
2022/03/25 07:04:10;;;;;;;39.73;20.50;;;7.50;99.90;;;;;;5103011;28;20416;-83
2022/03/25 07:06:56;;;;;;;36.40;21.67;;;7.60;99.90;;;;;;5102408;28;20466;-82
2022/03/25 07:09:41;;;;;;;37.17;23.17;;;7.70;99.90;;;;;;5103543;28;20486;-80
2022/03/25 07:12:26;;;;;;;39.40;24.43;;;7.80;99.90;;;;;;5094743;28;20476;-82
2022/03/25 07:15:12;;;;;;;43.67;23.80;;;7.90;99.90;;;;;;5103519;28;20435;-81
2022/03/25 07:17:57;;;;;;;44.87;24.80;;;8.10;99.90;;;;;;5082377;28;20463;-82
2022/03/25 07:20:41;;;;;;;43.43;25.13;;;8.20;99.90;;;;;;5081808;28;20685;-82
2022/03/25 07:23:25;;;;;;;38.23;23.60;;;8.30;99.90;;;;;;5090486;28;20481;-82
2022/03/25 07:26:10;;;;;;;35.70;24.57;;;8.40;99.90;;;;;;5102634;28;20426;-82
2022/03/25 07:28:55;;;;;;;39.97;24.47;;;8.50;99.90;;;;;;5078544;28;20407;-82
2022/03/25 07:31:40;;;;;;;38.53;20.70;;;8.50;99.90;;;;;;5106742;28;20424;-82
2022/03/25 07:34:24;;;;;;;34.27;21.03;;;8.60;99.90;;;;;;5119832;28;20423;-81
2022/03/25 07:37:10;;;;;;;28.93;22.27;;;8.60;99.90;;;;;;5118598;28;20455;-79
2022/03/25 07:39:54;;;;;;;30.97;20.47;;;8.80;99.90;;;;;;5119417;28;20404;-81
2022/03/25 07:42:41;;;;;;;33.00;22.70;;;8.80;99.90;;;;;;5119127;28;20415;-82
2022/03/25 07:45:25;;;;;;;41.83;24.73;;;8.90;99.90;;;;;;5119640;28;20456;-81
2022/03/25 07:48:10;;;;;;;33.10;20.87;;;9.00;99.90;;;;;;5118475;28;20485;-82
2022/03/25 07:50:56;;;;;;;37.33;20.40;;;9.10;99.90;;;;;;5107033;28;20473;-83
2022/03/25 07:53:40;;;;;;;38.13;23.10;;;9.20;99.90;;;;;;5090002;28;20392;-83
2022/03/25 07:56:25;;;;;;;41.03;23.63;;;9.30;99.90;;;;;;5108551;28;20466;-82
2022/03/25 07:59:11;;;;;;;38.70;23.63;;;9.40;99.90;;;;;;5105473;28;20412;-82
2022/03/25 08:02:15;;;;;;;39.43;22.43;;;9.60;99.90;;;;;;5090616;28;20442;-83
2022/03/25 08:04:59;;;;;;;41.77;24.60;;;9.70;99.90;;;;;;5075852;28;20785;-81
2022/03/25 08:07:49;;;;;;;40.03;23.50;;;9.80;99.90;;;;;;5044745;28;20530;-81
2022/03/25 08:10:34;;;;;;;39.03;21.30;;;10.00;99.90;;;;;;5063286;28;20491;-81
2022/03/25 08:13:19;;;;;;;34.60;22.67;;;10.00;99.90;;;;;;5067370;28;20452;-81
2022/03/25 08:16:04;;;;;;;37.90;23.97;;;10.20;99.90;;;;;;5043378;28;20846;-82
2022/03/25 08:18:49;;;;;;;31.27;21.70;;;10.20;99.90;;;;;;5058800;28;20428;-82
2022/03/25 08:21:34;;;;;;;38.70;22.50;;;10.40;99.90;;;;;;5064413;28;20432;-81
2022/03/25 08:30:23;;;;;;;37.00;23.07;;;10.70;99.90;;;;;;5064175;28;20434;-80
2022/03/25 08:33:09;;;;;;;35.50;20.60;;;10.80;99.90;;;;;;5079429;28;20803;-80
2022/03/25 08:35:54;;;;;;;34.83;24.20;;;10.90;99.90;;;;;;5091834;28;20458;-80
2022/03/25 08:38:38;;;;;;;35.77;22.80;;;11.10;99.90;;;;;;5106577;28;20424;-78
2022/03/25 08:41:23;;;;;;;38.23;22.80;;;11.30;99.90;;;;;;5106284;28;20422;-77
2022/03/25 08:44:09;;;;;;;37.83;23.00;;;11.50;99.90;;;;;;5129472;28;20399;-78
2022/03/25 08:46:53;;;;;;;42.87;25.80;;;11.70;99.90;;;;;;5120733;28;20435;-81
2022/03/25 08:49:39;;;;;;;34.90;24.17;;;11.80;99.90;;;;;;5111469;28;20438;-78
2022/03/25 08:52:23;;;;;;;36.17;23.97;;;12.00;99.90;;;;;;5130743;28;20387;-80
2022/03/25 08:55:10;;;;;;;37.13;24.60;;;12.30;99.90;;;;;;5118346;28;20451;-82
2022/03/25 08:57:54;;;;;;;39.50;21.33;;;12.50;99.90;;;;;;5107143;28;20449;-82
2022/03/25 09:00:39;;;;;;;37.07;23.43;;;12.70;99.90;;;;;;5112672;28;20411;-81
2022/03/25 09:03:24;;;;;;;38.03;24.50;;;12.90;99.90;;;;;;5099874;28;20420;-82
2022/03/25 09:06:10;;;;;;;39.83;24.17;;;13.10;99.90;;;;;;5070203;28;20622;-81
2022/03/25 09:08:55;;;;;;;37.70;24.40;;;13.30;99.90;;;;;;5103770;28;20427;-82
2022/03/25 09:11:59;;;;;;;44.77;27.00;;;13.50;99.90;;;;;;5063437;28;20424;-83
2022/03/25 09:14:43;;;;;;;43.57;23.07;;;13.70;99.90;;;;;;5051000;28;20501;-83
2022/03/25 09:17:27;;;;;;;36.70;24.90;;;14.00;99.90;;;;;;5061738;28;20483;-83
2022/03/25 09:20:13;;;;;;;38.57;27.30;;;14.10;99.90;;;;;;5069702;28;20417;-83
2022/03/25 09:22:57;;;;;;;41.10;23.90;;;14.30;99.90;;;;;;5067405;28;20456;-83
2022/03/25 09:25:42;;;;;;;39.50;25.17;;;14.60;99.90;;;;;;5052181;28;20477;-83
2022/03/25 09:28:28;;;;;;;31.40;25.30;;;14.90;99.90;;;;;;5053825;28;20467;-83
2022/03/25 09:31:32;;;;;;;39.60;23.80;;;15.00;99.90;;;;;;5060852;28;20500;-83
2022/03/25 09:37:21;;;;;;;35.90;24.83;;;15.40;99.90;;;;;;5058954;28;20464;-82
2022/03/25 09:40:12;;;;;;;47.20;28.57;;;15.70;99.00;;;;;;5055423;28;20445;-81
2022/03/25 09:42:57;;;;;;;42.67;24.67;;;15.90;97.40;;;;;;5043092;28;20425;-82
2022/03/25 09:45:42;;;;;;;41.33;24.73;;;16.20;97.00;;;;;;5044595;28;20441;-82
2022/03/25 09:48:26;;;;;;;39.60;25.30;;;16.60;96.30;;;;;;5043451;28;20425;-83
2022/03/25 09:51:12;;;;;;;35.17;24.30;;;16.90;94.00;;;;;;5076025;28;20474;-82
2022/03/25 09:53:58;;;;;;;31.70;22.80;;;16.70;93.30;;;;;;5070701;28;20443;-80
2022/03/25 09:56:43;;;;;;;39.70;25.30;;;17.20;93.70;;;;;;5068616;28;21177;-80
2022/03/25 09:59:27;;;;;;;33.93;25.07;;;17.30;91.60;;;;;;5060243;28;20441;-82
2022/03/25 10:02:12;;;;;;;36.47;24.03;;;17.80;90.30;;;;;;5080887;28;20431;-81
2022/03/25 10:04:57;;;;;;;39.60;24.57;;;18.10;91.60;;;;;;5109464;28;20440;-80
2022/03/25 10:07:47;;;;;;;36.03;25.03;;;18.20;86.80;;;;;;5112938;28;20868;-81
2022/03/25 10:10:34;;;;;;;35.93;24.13;;;18.80;85.10;;;;;;5079337;28;20385;-79
2022/03/25 10:13:20;;;;;;;33.77;24.57;;;18.90;84.20;;;;;;5111220;28;20423;-83
2022/03/25 10:16:25;;;;;;;39.70;26.40;;;19.20;80.90;;;;;;5107765;28;20465;-80
2022/03/25 10:19:09;;;;;;;38.13;25.53;;;19.80;77.60;;;;;;5102238;28;20452;-80
2022/03/25 10:21:58;;;;;;;38.37;26.57;;;19.90;73.60;;;;;;5122952;28;20450;-82
2022/03/25 10:24:46;;;;;;;37.33;25.83;;;20.20;72.20;;;;;;5095216;28;20435;-81
2022/03/25 10:27:31;;;;;;;36.83;26.90;;;20.20;69.00;;;;;;5087756;28;20549;-83
2022/03/25 10:30:16;;;;;;;40.37;25.73;;;20.20;65.00;;;;;;5099451;28;20428;-82
2022/03/25 10:33:09;;;;;;;38.20;26.70;;;19.90;64.90;;;;;;5102947;28;20446;-81
2022/03/25 10:35:57;;;;;;;39.80;23.40;;;20.90;62.70;;;;;;5101859;28;20408;-82
2022/03/25 10:38:46;;;;;;;37.97;23.50;;;21.10;59.50;;;;;;5099184;28;20497;-81
2022/03/25 10:41:42;;;;;;;31.97;24.67;;;21.50;60.00;;;;;;5105104;28;20974;-81
2022/03/25 10:44:36;;;;;;;36.20;24.67;;;21.50;56.40;;;;;;5072453;28;20448;-81
2022/03/25 10:47:24;;;;;;;30.07;22.33;;;21.50;56.70;;;;;;5112278;28;20816;-80
2022/03/25 10:50:13;;;;;;;34.20;24.60;;;21.40;55.40;;;;;;5100927;28;20418;-82
2022/03/25 10:53:10;;;;;;;51.53;24.07;;;21.40;54.00;;;;;;5085787;28;20404;-81
2022/03/25 10:56:06;;;;;;;33.60;25.23;;;22.10;55.70;;;;;;5112004;28;20448;-82
2022/03/25 10:58:53;;;;;;;38.57;25.00;;;22.20;52.80;;;;;;5118219;28;20476;-79
2022/03/25 11:01:38;;;;;;;33.97;25.37;;;22.60;52.70;;;;;;5100044;28;20416;-80
2022/03/25 11:04:24;;;;;;;32.57;25.40;;;22.60;50.70;;;;;;5103599;28;20744;-81
2022/03/25 11:07:10;;;;;;;38.03;28.30;;;22.30;50.70;;;;;;5106907;28;20536;-82
2022/03/25 11:09:54;;;;;;;35.07;26.13;;;22.00;51.10;;;;;;5114517;28;20489;-83
2022/03/25 11:12:43;;;;;;;35.20;25.87;;;20.50;51.40;;;;;;5111666;28;20483;-80
2022/03/25 11:15:30;;;;;;;34.13;23.80;;;20.50;51.90;;;;;;5080065;28;20412;-80
2022/03/25 11:18:18;;;;;;;33.30;24.63;;;21.30;51.20;;;;;;5109375;28;20467;-81
2022/03/25 11:21:05;;;;;;;35.10;26.47;;;22.70;50.00;;;;;;5110360;28;20540;-82
2022/03/25 11:23:55;;;;;;;41.03;26.67;;;21.00;50.60;;;;;;5085352;28;20458;-83
2022/03/25 11:26:44;;;;;;;34.00;25.70;;;22.30;51.50;;;;;;5097266;28;20392;-79
2022/03/25 11:29:32;;;;;;;31.50;24.20;;;23.10;51.40;;;;;;5100637;28;20445;-82
2022/03/25 11:32:17;;;;;;;36.70;24.57;;;24.10;50.10;;;;;;5088178;28;20494;-80
2022/03/25 11:35:19;;;;;;;35.50;25.30;;;20.30;48.10;;;;;;5088627;28;20388;-80
2022/03/25 11:38:18;;;;;;;34.00;25.50;;;21.10;49.30;;;;;;5072271;28;20443;-82
2022/03/25 11:41:22;;;;;;;32.77;26.00;;;22.20;49.60;;;;;;5108284;28;20471;-83
2022/03/25 11:44:25;;;;;;;37.07;25.47;;;20.20;49.80;;;;;;5108880;28;20880;-82
2022/03/25 11:47:14;;;;;;;32.97;27.57;;;20.90;50.40;;;;;;5108131;28;20437;-84
2022/03/25 11:50:28;;;;;;;32.00;25.17;;;21.90;49.50;;;;;;5115568;28;20934;-82
2022/03/25 11:53:32;;;;;;;31.10;25.57;;;20.40;49.60;;;;;;5107312;28;20399;-81
2022/03/25 11:56:16;;;;;;;33.10;23.97;;;21.30;50.30;;;;;;5078226;28;20446;-83
2022/03/25 11:59:03;;;;;;;29.77;25.67;;;22.50;50.10;;;;;;5076637;28;20446;-84
2022/03/25 12:01:48;;;;;;;32.50;24.90;;;23.20;48.30;;;;;;5111642;28;20473;-84
2022/03/25 12:04:34;;;;;;;31.30;25.40;;;24.40;46.80;;;;;;5091707;28;20417;-84
2022/03/25 12:07:19;;;;;;;31.33;26.27;;;25.10;46.60;;;;;;5092201;28;20470;-83
2022/03/25 12:10:04;;;;;;;30.37;24.37;;;25.50;46.00;;;;;;5089676;28;20530;-81
2022/03/25 12:12:53;;;;;;;32.10;24.33;;;26.20;44.30;;;;;;5080691;28;20500;-78
2022/03/25 12:15:46;;;;;;;31.80;25.67;;;26.30;44.60;;;;;;5113217;28;20407;-80
2022/03/25 12:18:41;;;;;;;30.80;23.17;;;26.80;44.90;;;;;;5111891;28;20447;-80
2022/03/25 12:21:43;;;;;;;24.70;21.97;;;25.10;41.50;;;;;;5097665;28;20902;-81
2022/03/25 12:24:30;;;;;;;27.90;24.00;;;26.20;43.30;;;;;;5090782;28;20840;-80
2022/03/25 12:27:16;;;;;;;32.40;26.53;;;26.40;42.90;;;;;;5111215;28;20445;-79
2022/03/25 12:30:00;;;;;;;29.80;24.23;;;26.90;41.60;;;;;;5107982;28;20486;-79
2022/03/25 12:32:50;;;;;;;26.67;21.47;;;27.20;41.20;;;;;;5098297;28;20424;-81
2022/03/25 12:35:37;;;;;;;27.70;23.43;;;26.90;39.70;;;;;;5082610;28;20923;-80
2022/03/25 12:38:24;;;;;;;38.70;28.17;;;26.40;41.00;;;;;;5055175;28;20507;-83
2022/03/25 12:41:08;;;;;;;29.70;25.67;;;22.70;41.90;;;;;;5082271;28;20500;-81
2022/03/25 12:43:58;;;;;;;25.87;22.10;;;25.20;44.00;;;;;;5072763;28;20496;-80
2022/03/25 12:46:42;;;;;;;29.40;23.60;;;25.90;42.70;;;;;;5111168;28;20415;-82
2022/03/25 12:49:28;;;;;;;25.73;22.93;;;26.10;41.60;;;;;;5084768;28;20415;-83
2022/03/25 12:52:12;;;;;;;27.13;22.45;;;26.00;41.60;;;;;;5100908;28;20450;-79
2022/03/25 12:55:17;;;;;;;28.90;21.40;;;26.80;39.70;;;;;;5086778;28;20224;-82
2022/03/25 12:58:03;;;;;;;28.13;23.10;;;26.10;40.70;;;;;;5105890;28;20428;-80
2022/03/25 13:00:50;;;;;;;30.43;22.30;;;26.60;38.70;;;;;;5086454;28;20419;-81
2022/03/25 13:03:35;;;;;;;29.93;21.17;;;24.10;40.60;;;;;;5097878;28;20465;-81
2022/03/25 13:06:19;;;;;;;25.53;20.77;;;23.90;41.30;;;;;;5084948;28;20446;-81
2022/03/25 13:09:05;;;;;;;29.50;24.20;;;23.10;40.30;;;;;;5063531;28;20437;-79
2022/03/25 13:11:56;;;;;;;31.60;23.80;;;23.10;41.40;;;;;;5066310;28;20425;-80
2022/03/25 13:14:53;;;;;;;29.20;24.60;;;21.20;42.40;;;;;;5048765;28;20455;-81
2022/03/25 13:17:41;;;;;;;27.37;23.67;;;22.50;43.40;;;;;;5063040;28;20456;-81
2022/03/25 13:20:30;;;;;;;27.40;23.33;;;24.20;43.50;;;;;;5078259;28;20481;-81
2022/03/25 13:23:20;;;;;;;33.47;24.93;;;23.60;42.40;;;;;;5060232;28;20465;-81
2022/03/25 13:26:07;;;;;;;28.73;22.63;;;25.10;41.90;;;;;;5075698;28;20416;-81
2022/03/25 13:28:54;;;;;;;28.23;22.40;;;26.60;39.90;;;;;;5065656;28;20464;-80
2022/03/25 13:31:51;;;;;;;28.10;23.30;;;27.60;38.70;;;;;;5058609;28;20424;-79
2022/03/25 13:34:36;;;;;;;26.13;22.23;;;27.80;39.00;;;;;;5074404;28;20501;-80
2022/03/25 13:37:22;;;;;;;28.77;24.07;;;26.50;38.00;;;;;;5053420;28;20400;-81
2022/03/25 13:40:29;;;;;;;30.30;22.43;;;27.10;39.70;;;;;;5068978;28;20496;-80
2022/03/25 13:43:20;;;;;;;27.87;23.63;;;27.80;38.60;;;;;;5097559;28;20493;-80
2022/03/25 13:46:07;;;;;;;32.20;25.10;;;27.40;38.60;;;;;;5078194;28;20926;-81
2022/03/25 13:48:56;;;;;;;25.73;22.27;;;24.60;39.60;;;;;;5088135;28;20482;-82
2022/03/25 13:51:42;;;;;;;32.50;25.27;;;25.20;41.20;;;;;;5083202;28;20411;-82
2022/03/25 13:54:27;;;;;;;33.00;25.77;;;25.10;40.80;;;;;;5060201;28;20504;-80
2022/03/25 13:57:17;;;;;;;28.17;23.93;;;22.70;41.30;;;;;;5073605;28;20495;-82
2022/03/25 14:00:11;;;;;;;30.47;24.50;;;23.20;41.80;;;;;;5088280;28;20438;-80
2022/03/25 14:02:55;;;;;;;30.77;26.03;;;24.20;41.80;;;;;;5082480;28;20420;-79
2022/03/25 14:05:40;;;;;;;30.00;25.73;;;22.30;43.10;;;;;;5049361;28;20388;-81
2022/03/25 14:08:35;;;;;;;29.37;25.13;;;23.70;42.50;;;;;;5078347;28;20544;-80
2022/03/25 14:11:32;;;;;;;32.50;26.97;;;23.90;42.40;;;;;;5088312;28;20533;-81
2022/03/25 14:14:31;;;;;;;36.27;25.27;;;24.30;41.40;;;;;;5087484;28;20412;-79
2022/03/25 14:17:15;;;;;;;30.70;25.60;;;23.50;41.80;;;;;;5104704;28;20434;-82
2022/03/25 14:20:08;;;;;;;31.23;24.37;;;23.10;41.60;;;;;;5091590;28;20492;-81
2022/03/25 14:22:55;;;;;;;30.00;23.40;;;24.30;42.20;;;;;;5086820;28;20861;-81